• Join FlightAware (Why Join?)
  • Login
  • US Flag 
03:21PM EDT


 

Airport Tracker/Info


-or-


 

Live Flight TrackerFlight Track Log ✈ N960DL ✈ 17-Apr-2013 ✈ KBDL - KATL

Flight Track Log - Related Links

Times and Time Zones

All times are in EDT time to prevent confusion due to time zone crossing. See the N960DL flight status page for this flight to view local times or setup timezone preferences in your user account.

Time Position Orientation Groundspeed Altitude Reporting Facility
EDT Latitude Longitude Course Direction KTS MPH feet Rate Location/Type
04:10PM 41.9564 -72.6661 242° Southwest 196 226 1,200  Level Boston Center
04:11PM 41.9792 -72.6328 47° Northeast 205 236 1,900 1,920 Climbing Boston Center
04:12PM 42.0356 -72.5883 30° Northeast 250 288 4,500 2,400 Climbing Boston Center
04:13PM 41.9000 -73.2904 270° West  Level FlightAware Approximate
04:13PM 42.0708 -72.6386 313° West 203 234 6,700  Level Boston Center
04:14PM 41.8407 -73.4187 236° Southwest  Level FlightAware Approximate
04:14PM 42.0417 -72.7308 247° West 183 211 10,000  Level Boston Center
04:15PM 41.7859 -73.5520 242° Southwest  Level FlightAware Approximate
04:15PM 42.0100 -72.8339 248° West 241 277 11,300  Level Boston Center
04:16PM 41.9742 -72.9483 247° West 291 335 13,700 2,280 Climbing Boston Center
04:17PM 41.9403 -73.0653 249° West 343 395 16,000 2,160 Climbing Boston Center
04:18PM 41.8975 -73.2042 248° West 363 418 18,200 1,920 Climbing Boston Center
04:19PM 41.8594 -73.3181 246° West 375 432 19,800 1,620 Climbing Boston Center
04:20PM 41.8103 -73.4456 243° Southwest 380 437 21,500 1,680 Climbing Boston Center
04:22PM 41.6033 -73.6508 217° Southwest 411 473 25,100 1,440 Climbing New York Center
04:23PM 41.5117 -73.7439 217° Southwest 416 479 26,200 960 Climbing New York Center
04:24PM 41.4133 -73.8417 217° Southwest 435 501 27,100 960 Climbing New York Center
04:25PM 41.3289 -73.9567 226° Southwest 441 507 28,200 1,320 Climbing New York Center
04:26PM 41.2506 -74.0797 230° Southwest 441 507 29,700 900 Climbing New York Center
04:27PM 41.1725 -74.1944 228° Southwest 436 502 30,000 120 Climbing New York Center
04:28PM 41.0856 -74.3083 225° Southwest 436 502 30,000  Level New York Center
04:29PM 41.0092 -74.4308 230° Southwest 436 502 30,000  Level New York Center
04:30PM 40.9264 -74.5444 226° Southwest 436 502 30,000  Level New York Center
04:31PM 40.8472 -74.6664 229° Southwest 436 502 30,000  Level New York Center
04:32PM 40.7642 -74.7822 227° Southwest 436 502 30,000  Level New York Center
04:33PM 40.6872 -74.9036 230° Southwest 436 502 30,000  Level New York Center
04:34PM 40.6081 -75.0192 228° Southwest 431 496 30,000  Level New York Center
04:35PM 40.5269 -75.1314 226° Southwest 431 496 30,000  Level New York Center
04:36PM 40.4475 -75.2464 228° Southwest 431 496 30,000  Level New York Center
04:37PM 40.3658 -75.3636 228° Southwest 431 496 30,000  Level New York Center
04:38PM 40.2864 -75.4781 228° Southwest 431 496 30,000  Level New York Center
04:39PM 40.2086 -75.5953 229° Southwest 426 490 30,000  Level New York Center
04:40PM 40.1450 -75.7211 237° Southwest 426 490 30,000  Level New York Center
04:41PM 40.0792 -75.8494 236° Southwest 426 490 30,000  Level New York Center
04:42PM 40.0172 -75.9778 238° Southwest 426 490 30,000  Level New York Center
04:43PM 39.9511 -76.1056 236° Southwest 426 490 30,000  Level New York Center
04:45PM 39.8069 -76.3828 236° Southwest 436 502 30,000  Level Washington Center
04:46PM 39.7436 -76.5089 237° Southwest 431 496 30,000  Level Washington Center
04:47PM 39.6800 -76.6322 236° Southwest 431 496 30,000  Level Washington Center
04:48PM 39.6100 -76.7578 234° Southwest 431 496 30,000  Level Washington Center
04:49PM 39.5419 -76.8967 238° Southwest 431 496 30,000  Level Washington Center
04:50PM 39.4742 -77.0031 230° Southwest 426 490 30,000  Level Washington Center
04:51PM 39.3747 -77.1111 220° Southwest 426 490 30,000  Level Washington Center
04:52PM 39.2883 -77.1978 218° Southwest 436 502 30,000  Level Washington Center
04:53PM 39.1847 -77.3028 218° Southwest 436 502 30,000  Level Washington Center
04:54PM 39.1103 -77.4000 225° Southwest 431 496 30,000  Level Washington Center
04:55PM 39.0231 -77.5233 228° Southwest 426 490 30,000  Level Washington Center
04:56PM 38.9525 -77.6256 228° Southwest 431 496 30,000  Level Washington Center
04:57PM 38.8689 -77.7514 230° Southwest 426 490 30,000  Level Washington Center
04:58PM 38.7942 -77.8556 227° Southwest 432 497 30,000  Level Washington Center
04:59PM 38.7147 -77.9675 228° Southwest 432 497 30,000  Level Washington Center
05:00PM 38.6375 -78.0794 229° Southwest 432 497 30,000 600 Level Washington Center
05:01PM 38.5558 -78.1936 228° Southwest 432 497 31,300 1,200 Climbing Washington Center
05:02PM 38.4783 -78.3047 228° Southwest 432 497 32,500 900 Climbing Washington Center
05:03PM 38.3986 -78.4158 228° Southwest 432 497 33,200 600 Climbing Washington Center
05:04PM 38.3208 -78.5267 228° Southwest 426 490 33,700 360 Climbing Washington Center
05:05PM 38.2453 -78.6322 228° Southwest 426 490 34,000 120 Climbing Washington Center
05:06PM 38.1608 -78.7556 229° Southwest 426 490 34,000  Level Washington Center
05:07PM 38.0808 -78.8628 227° Southwest 426 490 34,000  Level Washington Center
05:08PM 38.0028 -78.9703 227° Southwest 426 490 34,000  Level Washington Center
05:09PM 37.9244 -79.0800 228° Southwest 426 490 34,000  Level Washington Center
05:10PM 37.8528 -79.1764 227° Southwest 426 490 34,000  Level Washington Center
05:11PM 37.7764 -79.2833 228° Southwest 426 490 34,000  Level Washington Center
05:12PM 37.6894 -79.4022 227° Southwest 426 490 34,000  Level Washington Center
05:13PM 37.6108 -79.5111 228° Southwest 426 490 34,000  Level Washington Center
05:14PM 37.5322 -79.6169 227° Southwest 426 490 34,000  Level Washington Center
05:15PM 37.4556 -79.7203 227° Southwest 426 490 34,000  Level Washington Center
05:16PM 37.3831 -79.8236 229° Southwest 436 502 34,000  Level Washington Center
05:17PM 37.2956 -79.9414 227° Southwest 424 488 34,000  Level Washington Center
05:18PM 37.2208 -80.0442 228° Southwest 419 482 34,000  Level Washington Center
05:19PM 37.1156 -80.1842 227° Southwest 419 482 34,000  Level Atlanta Center
05:20PM 37.0394 -80.2867 227° Southwest 414 476 34,000  Level Atlanta Center
05:21PM 36.9675 -80.3889 229° Southwest 407 468 34,000  Level Atlanta Center
05:22PM 36.8892 -80.4883 225° Southwest 402 463 34,000  Level Atlanta Center
05:23PM 36.8047 -80.6011 227° Southwest 408 470 34,000  Level Atlanta Center
05:24PM 36.7403 -80.6867 227° Southwest 402 463 34,000  Level Atlanta Center
05:25PM 36.6558 -80.7989 227° Southwest 397 457 34,000  Level Atlanta Center
05:26PM 36.5772 -80.9031 227° Southwest 407 468 34,000  Level Atlanta Center
05:27PM 36.5006 -81.0042 227° Southwest 407 468 34,000  Level Atlanta Center
05:28PM 36.4194 -81.1078 226° Southwest 407 468 34,000  Level Atlanta Center
05:29PM 36.3428 -81.2111 227° Southwest 407 468 34,000  Level Atlanta Center
05:30PM 36.2639 -81.3169 227° Southwest 407 468 34,000  Level Atlanta Center
05:31PM 36.1847 -81.4200 226° Southwest 407 468 34,000  Level Atlanta Center
05:32PM 36.1075 -81.5228 227° Southwest 412 474 34,000  Level Atlanta Center
05:33PM 36.0283 -81.6278 227° Southwest 412 474 34,000  Level Atlanta Center
05:34PM 35.9531 -81.7250 226° Southwest 406 467 34,000  Level Atlanta Center
05:35PM 35.8714 -81.8272 225° Southwest 406 467 34,000  Level Atlanta Center
05:36PM 35.7939 -81.9267 226° Southwest 406 467 34,000  Level Atlanta Center
05:37PM 35.7142 -82.0283 226° Southwest 411 473 34,000  Level Atlanta Center
05:38PM 35.6344 -82.1300 226° Southwest 406 467 34,000  Level Atlanta Center
05:39PM 35.5692 -82.2108 225° Southwest 400 460 34,000  Level Atlanta Center
05:40PM 35.4953 -82.3042 226° Southwest 386 444 34,000  Level Atlanta Center
05:41PM 35.4172 -82.4028 226° Southwest 386 444 34,000  Level Atlanta Center
05:42PM 35.3414 -82.4983 226° Southwest 386 444 34,000 -360 Level Atlanta Center
05:43PM 35.2675 -82.5889 225° Southwest 381 438 33,300 -720 Descending Atlanta Center
05:44PM 35.1956 -82.6817 227° Southwest 376 433 32,600 -840 Descending Atlanta Center
05:45PM 35.1192 -82.7742 225° Southwest 382 440 31,700 -840 Descending Atlanta Center
05:46PM 35.0514 -82.8692 229° Southwest 382 440 31,000 -840 Descending Atlanta Center
05:47PM 34.9939 -82.9789 237° Southwest 382 440 30,100 -900 Descending Atlanta Center
05:48PM 34.9406 -83.0861 239° Southwest 382 440 29,300 -840 Descending Atlanta Center
05:49PM 34.8869 -83.1906 238° Southwest 372 428 28,500 -780 Descending Atlanta Center
05:50PM 34.8375 -83.2947 240° Southwest 372 428 27,800 -900 Descending Atlanta Center
05:51PM 34.7819 -83.4117 240° Southwest 366 421 26,800 -900 Descending Atlanta Center
05:52PM 34.7469 -83.5256 250° West 356 410 26,000 -840 Descending Atlanta Center
05:53PM 34.7328 -83.6344 261° West 356 410 25,200 -720 Descending Atlanta Center
05:54PM 34.6453 -83.6878 207° Southwest 330 380 24,600 -900 Descending Atlanta Center
05:55PM 34.5244 -83.7236 194° South 382 440 23,500 -1,560 Descending Atlanta Center
05:56PM 34.4075 -83.7569 193° South 419 482 21,500 -2,220 Descending Atlanta Center
05:57PM 34.2992 -83.7872 193° South 414 476 19,100 -2,280 Descending Atlanta Center
05:58PM 34.1947 -83.8178 194° South 407 468 17,000 -2,160 Descending Atlanta Center
05:59PM 34.0883 -83.8481 193° South 395 455 14,800 -2,040 Descending Atlanta Center
06:00PM 34.0500 -83.8833 217° Southwest 370 426 14,100 -1,080 Descending Atlanta TRACON
06:01PM 33.9833 -83.9667 226° Southwest 360 414 13,300 -840 Descending Atlanta TRACON
06:02PM 33.9000 -84.0500 220° Southwest 358 412 12,400 -780 Descending Atlanta TRACON
06:02PM 33.8653 -84.0864 221° Southwest 367 422 12,100 -240 Descending Atlanta Center
06:03PM 33.7922 -84.1489 215° Southwest 367 422 12,100 -120 Level Atlanta Center
06:04PM 33.7333 -84.1833 206° Southwest 346 398 12,000 -120 Descending Atlanta TRACON
06:05PM 33.7167 -84.2667 257° West 267 307 12,000 -480 Level Atlanta TRACON
06:06PM 33.7333 -84.3500 284° West 256 295 11,000 -1,200 Descending Atlanta TRACON
06:07PM 33.7333 -84.4333 270° West 254 292 9,700 -1,320 Descending Atlanta TRACON
06:08PM 33.7333 -84.5167 270° West 243 280 8,500 -1,320 Descending Atlanta TRACON
06:09PM 33.7333 -84.5833 270° West 236 272 7,300 -1,320 Descending Atlanta TRACON
06:10PM 33.7167 -84.6667 257° West 238 274 6,000 -1,440 Descending Atlanta TRACON
06:11PM 33.6667 -84.6333 151° Southeast 223 257 4,500 -1,500 Descending Atlanta TRACON